Aurora, Utah
Current Conditions -  °F | °C
As of 4:55 AM on Saturday 01 Nov 2014 (Local Time) from KDTA Reporting Station
Clear Clear  
Wind Chill: 57°   Ceiling: Unl
Heat Index: 57°   Visibility: 10mi
Dew Point: 29°   Wind: 9mph
Humidity: 35%   Direction: 150°SSE
Pressure: 29.71"   Gusts: NA
Location:  38.92°N, 111.93°W
Report Text: KDTA 011055Z AUTO 15008KT 10SM CLR 14/M01 A2971 RMK AO1 T01371014
Loading
Personal Weather Stations






























Interactive Weather Map
Tropical Storm Tracking
New forecast layout! Learn more

10-Day Weather Forecast

Advertisements
Track Severe Weather on mobile